createdAt,value
2018-12-16T00:00:28.952Z,1.50
2018-12-16T00:02:59.793Z,1.50
2018-12-16T00:05:30.564Z,1.50
2018-12-16T00:07:59.380Z,1.50
2018-12-16T00:10:28.334Z,1.60
2018-12-16T00:12:57.287Z,1.50
2018-12-16T00:15:26.283Z,1.50
2018-12-16T00:17:55.097Z,1.50
2018-12-16T00:20:23.932Z,1.60
2018-12-16T00:22:52.760Z,1.60
2018-12-16T00:25:21.848Z,1.60
2018-12-16T00:27:50.711Z,1.60
2018-12-16T00:30:19.687Z,1.50
2018-12-16T00:32:48.519Z,1.50
2018-12-16T00:35:17.410Z,1.50
2018-12-16T00:37:46.215Z,1.50
2018-12-16T00:40:15.055Z,1.50
2018-12-16T00:42:43.863Z,1.50
2018-12-16T00:45:12.743Z,1.50
2018-12-16T00:47:41.572Z,1.50
2018-12-16T00:50:10.615Z,1.60
2018-12-16T00:52:39.444Z,1.60
2018-12-16T00:55:08.514Z,1.60
2018-12-16T00:57:37.338Z,1.60
2018-12-16T01:00:11.586Z,1.60
2018-12-16T01:02:41.882Z,1.60
2018-12-16T01:05:11.183Z,1.60
2018-12-16T01:07:40.072Z,1.60
2018-12-16T01:10:10.334Z,1.60
2018-12-16T01:12:39.134Z,1.60
2018-12-16T01:15:08.127Z,1.60
2018-12-16T01:17:36.936Z,1.70
2018-12-16T01:20:07.716Z,1.70
2018-12-16T01:22:43.221Z,1.70
2018-12-16T01:25:07.521Z,1.70
2018-12-16T01:27:36.335Z,1.70
2018-12-16T01:30:05.407Z,1.70
2018-12-16T01:32:34.211Z,1.60
2018-12-16T01:35:03.299Z,1.60
2018-12-16T01:37:32.179Z,1.60
2018-12-16T01:40:00.980Z,1.70
2018-12-16T01:42:29.775Z,1.70
2018-12-16T01:44:58.566Z,1.70
2018-12-16T01:47:27.375Z,1.60
2018-12-16T01:49:56.166Z,1.60
2018-12-16T01:52:24.982Z,1.70
2018-12-16T01:54:53.755Z,1.70
2018-12-16T01:57:22.611Z,1.70
2018-12-16T01:59:51.390Z,1.60
2018-12-16T02:02:20.179Z,1.70
2018-12-16T02:04:49.046Z,1.70
2018-12-16T02:07:17.835Z,1.60
2018-12-16T02:09:46.614Z,1.50
2018-12-16T02:12:15.396Z,1.30
2018-12-16T02:14:44.253Z,1.30
2018-12-16T02:17:13.095Z,1.20
2018-12-16T02:19:41.975Z,1.10
2018-12-16T02:22:10.786Z,1.00
2018-12-16T02:24:39.689Z,0.90
2018-12-16T02:27:08.502Z,0.90
2018-12-16T02:29:37.346Z,0.90
2018-12-16T02:32:06.342Z,0.80
2018-12-16T02:34:36.213Z,0.70
2018-12-16T02:37:05.039Z,0.60
2018-12-16T02:39:33.867Z,0.50
2018-12-16T02:42:02.798Z,0.40
2018-12-16T02:44:31.632Z,0.50
2018-12-16T02:47:00.460Z,0.50
2018-12-16T02:49:29.310Z,0.50
2018-12-16T02:51:58.203Z,0.50
2018-12-16T02:54:27.015Z,0.60
2018-12-16T02:56:55.843Z,0.60
2018-12-16T02:59:24.711Z,0.60
2018-12-16T03:01:53.603Z,0.60
2018-12-16T03:04:22.436Z,0.70
2018-12-16T03:06:51.242Z,0.70
2018-12-16T03:09:20.047Z,0.70
2018-12-16T03:11:48.878Z,0.70
2018-12-16T03:14:17.705Z,0.70
2018-12-16T03:16:46.519Z,0.70
2018-12-16T03:19:15.332Z,0.60
2018-12-16T03:21:44.234Z,0.50
2018-12-16T03:24:13.043Z,0.50
2018-12-16T03:26:41.980Z,0.50
2018-12-16T03:29:10.871Z,0.50
2018-12-16T03:31:39.717Z,0.40
2018-12-16T03:34:08.535Z,0.50
2018-12-16T03:36:37.384Z,0.50
2018-12-16T03:39:07.326Z,0.50
2018-12-16T03:41:37.121Z,0.50
2018-12-16T03:44:06.013Z,0.50
2018-12-16T03:46:34.904Z,0.40
2018-12-16T03:49:03.699Z,0.40
2018-12-16T03:51:32.510Z,0.50
2018-12-16T03:54:01.407Z,0.40
2018-12-16T03:56:30.244Z,0.40
2018-12-16T03:59:20.676Z,0.40
2018-12-16T04:01:57.870Z,0.40
2018-12-16T04:04:27.569Z,0.40
2018-12-16T04:06:56.392Z,0.40
2018-12-16T04:09:25.198Z,0.40
2018-12-16T04:11:54.040Z,0.40
2018-12-16T04:14:22.862Z,0.30
2018-12-16T04:16:53.612Z,0.30
2018-12-16T04:19:22.490Z,0.30
2018-12-16T04:21:51.300Z,0.20
2018-12-16T04:24:20.099Z,0.10
2018-12-16T04:26:48.935Z,0.00
2018-12-16T04:29:17.763Z,0.00
2018-12-16T04:31:46.563Z,-0.10
2018-12-16T04:34:15.348Z,0.00
2018-12-16T04:36:44.175Z,0.00
2018-12-16T04:39:12.936Z,0.00
2018-12-16T04:41:41.736Z,0.00
2018-12-16T04:44:10.573Z,0.00
2018-12-16T04:46:40.518Z,0.10
2018-12-16T04:49:09.305Z,0.00
2018-12-16T04:51:38.109Z,0.00
2018-12-16T04:54:06.918Z,0.00
2018-12-16T04:56:35.698Z,0.00
2018-12-16T04:59:04.531Z,0.00
2018-12-16T05:01:33.335Z,0.00
2018-12-16T05:04:02.131Z,0.00
2018-12-16T05:06:30.939Z,0.00
2018-12-16T05:08:59.743Z,0.00
2018-12-16T05:11:28.643Z,0.00
2018-12-16T05:13:57.439Z,0.00
2018-12-16T05:16:26.293Z,0.00
2018-12-16T05:18:55.083Z,0.10
2018-12-16T05:21:23.888Z,0.10
2018-12-16T05:23:52.794Z,0.20
2018-12-16T05:26:21.610Z,0.20
2018-12-16T05:28:50.496Z,0.20
2018-12-16T05:31:19.322Z,0.20
2018-12-16T05:33:48.142Z,0.20
2018-12-16T05:36:16.942Z,0.20
2018-12-16T05:38:45.762Z,0.20
2018-12-16T05:41:14.570Z,0.20
2018-12-16T05:43:43.382Z,0.20
2018-12-16T05:46:12.218Z,0.30
2018-12-16T05:48:41.045Z,0.30
2018-12-16T05:51:09.890Z,0.30
2018-12-16T05:53:38.697Z,0.30
2018-12-16T05:56:07.677Z,0.30
2018-12-16T05:58:36.543Z,0.30
2018-12-16T06:01:05.403Z,0.20
2018-12-16T06:03:34.261Z,0.20
2018-12-16T06:06:03.117Z,0.20
2018-12-16T06:08:32.145Z,0.10
2018-12-16T06:11:01.003Z,0.10
2018-12-16T06:13:30.408Z,0.10
2018-12-16T06:15:59.218Z,0.20
2018-12-16T06:18:28.183Z,0.20
2018-12-16T06:20:57.087Z,0.20
2018-12-16T06:23:26.006Z,0.20
2018-12-16T06:25:54.832Z,0.30
2018-12-16T06:28:23.680Z,0.30
2018-12-16T06:30:52.705Z,0.40
2018-12-16T06:33:21.549Z,0.40
2018-12-16T06:35:50.373Z,0.40
2018-12-16T06:38:19.168Z,0.40
2018-12-16T06:40:48.004Z,0.40
2018-12-16T06:43:16.866Z,0.40
2018-12-16T06:45:45.713Z,0.50
2018-12-16T06:48:14.530Z,0.50
2018-12-16T06:50:43.301Z,0.50
2018-12-16T06:53:12.095Z,0.60
2018-12-16T06:55:43.403Z,0.50
2018-12-16T06:58:11.702Z,0.60
2018-12-16T07:00:40.498Z,0.60
2018-12-16T07:03:09.301Z,0.60
2018-12-16T07:05:38.097Z,0.60
2018-12-16T07:08:06.891Z,0.70
2018-12-16T07:10:35.791Z,0.70
2018-12-16T07:13:04.744Z,0.70
2018-12-16T07:15:33.666Z,0.70
2018-12-16T07:18:02.574Z,0.70
2018-12-16T07:20:31.435Z,0.70
2018-12-16T07:23:01.286Z,0.80
2018-12-16T07:25:30.189Z,0.70
2018-12-16T07:27:59.125Z,0.70
2018-12-16T07:30:28.167Z,1.10
2018-12-16T07:32:57.035Z,1.10
2018-12-16T07:35:26.280Z,1.00
2018-12-16T07:37:55.274Z,1.00
2018-12-16T07:40:24.154Z,0.90
2018-12-16T07:42:53.092Z,0.80
2018-12-16T07:45:22.110Z,0.80
2018-12-16T07:47:51.382Z,0.80
2018-12-16T07:50:20.416Z,0.80
2018-12-16T07:52:49.485Z,0.80
2018-12-16T07:55:18.930Z,0.90
2018-12-16T07:59:21.293Z,0.90
2018-12-16T08:01:50.078Z,0.80
2018-12-16T08:04:18.941Z,0.90
2018-12-16T08:06:47.765Z,0.90
2018-12-16T08:09:16.538Z,0.90
2018-12-16T08:11:45.330Z,0.90
2018-12-16T08:14:14.172Z,0.90
2018-12-16T08:16:42.971Z,0.90
2018-12-16T08:19:11.968Z,0.90
2018-12-16T08:21:40.869Z,1.00
2018-12-16T08:24:09.706Z,1.00
2018-12-16T08:26:38.613Z,1.10
2018-12-16T08:29:07.503Z,1.00
2018-12-16T08:31:36.397Z,1.10
2018-12-16T08:34:05.214Z,1.10
2018-12-16T08:36:35.264Z,1.00
2018-12-16T08:39:11.410Z,1.00
2018-12-16T08:41:40.291Z,1.00
2018-12-16T08:44:09.133Z,1.00
2018-12-16T08:46:37.962Z,1.00
2018-12-16T08:49:06.803Z,1.10
2018-12-16T08:51:35.629Z,1.00
2018-12-16T08:54:04.543Z,1.10
2018-12-16T08:56:33.346Z,1.00
2018-12-16T08:59:02.158Z,1.00
2018-12-16T09:01:31.091Z,1.10
2018-12-16T09:04:00.210Z,1.10
2018-12-16T09:06:29.114Z,1.10
2018-12-16T09:08:58.474Z,1.10
2018-12-16T09:11:27.264Z,1.10
2018-12-16T09:13:56.099Z,1.20
2018-12-16T09:16:25.000Z,1.20
2018-12-16T09:18:53.774Z,1.20
2018-12-16T09:21:22.539Z,1.10
2018-12-16T09:23:51.338Z,1.10
2018-12-16T09:26:20.105Z,1.10
2018-12-16T09:28:48.920Z,1.20
2018-12-16T09:31:17.838Z,1.20
2018-12-16T09:33:46.618Z,1.20
2018-12-16T09:36:15.410Z,1.20
2018-12-16T09:38:44.356Z,1.20
2018-12-16T09:41:13.174Z,1.20
2018-12-16T09:43:41.971Z,1.20
2018-12-16T09:46:10.786Z,1.30
2018-12-16T09:48:39.650Z,1.30
2018-12-16T09:51:08.503Z,1.40
2018-12-16T09:53:37.515Z,1.40
2018-12-16T09:56:06.306Z,1.50
2018-12-16T09:58:35.066Z,1.50
2018-12-16T10:01:04.073Z,1.60
2018-12-16T10:03:33.115Z,1.60
2018-12-16T10:06:01.995Z,1.60
2018-12-16T10:08:30.804Z,1.60
2018-12-16T10:10:59.646Z,1.60
2018-12-16T10:13:28.476Z,1.50
2018-12-16T10:15:57.338Z,1.50
2018-12-16T10:18:32.445Z,1.60
2018-12-16T10:21:01.273Z,1.60
2018-12-16T10:23:30.094Z,1.60
2018-12-16T10:25:58.874Z,1.50
2018-12-16T10:28:27.711Z,1.50
2018-12-16T10:30:56.638Z,1.50
2018-12-16T10:33:25.462Z,1.60
2018-12-16T10:35:54.259Z,1.70
2018-12-16T10:38:23.045Z,1.70
2018-12-16T10:40:51.859Z,1.70
2018-12-16T10:43:20.766Z,1.70
2018-12-16T10:45:49.739Z,1.70
2018-12-16T10:48:19.662Z,1.60
2018-12-16T10:50:48.535Z,1.70
2018-12-16T10:53:17.370Z,1.70
2018-12-16T10:55:46.162Z,1.80
2018-12-16T10:58:14.986Z,1.80
2018-12-16T11:00:49.095Z,1.80
2018-12-16T11:03:17.962Z,1.90
2018-12-16T11:05:46.798Z,1.90
2018-12-16T11:08:15.913Z,1.90
2018-12-16T11:10:44.696Z,2.00
2018-12-16T11:13:13.581Z,2.00
2018-12-16T11:15:42.474Z,2.10
2018-12-16T11:18:11.413Z,2.10
2018-12-16T11:20:42.177Z,2.10
2018-12-16T11:23:11.014Z,2.20
2018-12-16T11:25:46.823Z,2.20
2018-12-16T11:28:15.616Z,2.30
2018-12-16T11:30:44.407Z,2.20
2018-12-16T11:33:20.694Z,2.20
2018-12-16T11:35:52.284Z,2.20
2018-12-16T11:38:21.152Z,2.20
2018-12-16T11:40:49.946Z,2.20
2018-12-16T11:43:18.747Z,2.10
2018-12-16T11:45:47.649Z,2.10
2018-12-16T11:48:16.542Z,2.10
2018-12-16T11:50:45.442Z,2.10
2018-12-16T11:53:14.229Z,2.10
2018-12-16T11:55:43.239Z,2.20
2018-12-16T11:58:12.125Z,2.20
2018-12-16T12:00:40.972Z,2.10
2018-12-16T12:03:09.770Z,2.10
2018-12-16T12:05:40.632Z,2.10
2018-12-16T12:08:09.411Z,2.10
2018-12-16T12:10:38.218Z,2.10
2018-12-16T12:13:07.105Z,2.10
2018-12-16T12:15:35.996Z,2.20
2018-12-16T12:18:04.780Z,2.20
2018-12-16T12:20:33.712Z,2.20
2018-12-16T12:23:02.482Z,2.20
2018-12-16T12:25:31.563Z,2.20
2018-12-16T12:28:00.567Z,2.20
2018-12-16T12:30:29.427Z,2.20
2018-12-16T12:32:58.250Z,2.20
2018-12-16T12:35:27.129Z,2.20
2018-12-16T12:37:56.046Z,2.20
2018-12-16T12:40:24.835Z,2.30
2018-12-16T12:42:53.742Z,2.30
2018-12-16T12:45:22.586Z,2.40
2018-12-16T12:47:51.379Z,2.30
2018-12-16T12:50:20.346Z,2.40
2018-12-16T12:52:49.135Z,2.30
2018-12-16T12:55:17.992Z,2.40
2018-12-16T12:57:46.804Z,2.40
2018-12-16T13:00:15.811Z,2.50
2018-12-16T13:02:44.627Z,2.60
2018-12-16T13:05:13.407Z,2.50
2018-12-16T13:07:42.222Z,2.50
2018-12-16T13:10:12.178Z,2.50
2018-12-16T13:12:40.980Z,2.50
2018-12-16T13:15:09.925Z,2.50
2018-12-16T13:17:38.811Z,2.50
2018-12-16T13:20:07.939Z,2.50
2018-12-16T13:22:36.758Z,2.60
2018-12-16T13:25:17.018Z,2.50
2018-12-16T13:27:45.896Z,2.50
2018-12-16T13:30:14.858Z,2.60
2018-12-16T13:32:43.774Z,2.70
2018-12-16T13:35:12.625Z,2.60
2018-12-16T13:37:41.415Z,2.60
2018-12-16T13:40:10.418Z,2.60
2018-12-16T13:42:39.251Z,2.60
2018-12-16T13:45:08.262Z,2.70
2018-12-16T13:47:37.128Z,2.60
2018-12-16T13:50:08.152Z,2.70
2018-12-16T13:52:37.031Z,2.60
2018-12-16T13:55:06.927Z,2.60
2018-12-16T13:57:36.597Z,2.60
2018-12-16T14:00:06.492Z,2.60
2018-12-16T14:02:35.349Z,2.60
2018-12-16T14:05:05.388Z,2.60
2018-12-16T14:07:34.188Z,2.60
2018-12-16T14:10:03.203Z,2.60
2018-12-16T14:12:32.015Z,2.80
2018-12-16T14:15:00.825Z,2.80
2018-12-16T14:17:29.789Z,2.70
2018-12-16T14:19:58.666Z,2.70
2018-12-16T14:22:27.645Z,2.80
2018-12-16T14:24:56.620Z,2.70
2018-12-16T14:27:25.423Z,2.70
2018-12-16T14:29:54.251Z,2.70
2018-12-16T14:32:23.153Z,2.70
2018-12-16T14:34:51.986Z,2.70
2018-12-16T14:37:20.889Z,2.70
2018-12-16T14:39:49.742Z,2.80
2018-12-16T14:42:18.556Z,2.70
2018-12-16T14:44:47.431Z,2.70
2018-12-16T14:47:16.220Z,2.80
2018-12-16T14:49:45.071Z,2.70
2018-12-16T14:52:13.859Z,2.70
2018-12-16T14:54:42.636Z,2.80
2018-12-16T14:57:11.515Z,2.80
2018-12-16T14:59:40.355Z,2.90
2018-12-16T15:02:09.171Z,2.90
2018-12-16T15:04:38.367Z,2.80
2018-12-16T15:07:07.225Z,2.70
2018-12-16T15:09:36.081Z,2.70
2018-12-16T15:12:05.097Z,2.80
2018-12-16T15:14:33.994Z,2.70
2018-12-16T15:17:03.010Z,2.50
2018-12-16T15:19:32.097Z,2.60
2018-12-16T15:22:01.233Z,2.70
2018-12-16T15:24:30.213Z,2.70
2018-12-16T15:26:59.505Z,2.90
2018-12-16T15:29:28.533Z,2.90
2018-12-16T15:31:58.568Z,2.90
2018-12-16T15:34:27.648Z,2.90
2018-12-16T15:36:56.608Z,2.90
2018-12-16T15:39:25.720Z,2.80
2018-12-16T15:41:54.697Z,2.80
2018-12-16T15:44:23.752Z,2.90
2018-12-16T15:46:52.724Z,2.90
2018-12-16T15:49:22.510Z,2.90
2018-12-16T15:51:52.151Z,2.90
2018-12-16T15:54:21.050Z,2.90
2018-12-16T15:56:50.081Z,2.80
2018-12-16T15:59:18.900Z,2.90
2018-12-16T16:01:47.786Z,2.90
2018-12-16T16:04:16.757Z,2.90
2018-12-16T16:06:45.615Z,2.90
2018-12-16T16:09:14.593Z,2.90
2018-12-16T16:11:43.513Z,2.90
2018-12-16T16:14:12.445Z,2.90
2018-12-16T16:16:44.150Z,2.90
2018-12-16T16:19:13.687Z,2.90
2018-12-16T16:21:42.767Z,2.90
2018-12-16T16:24:11.741Z,3.00
2018-12-16T16:26:40.697Z,3.00
2018-12-16T16:29:09.565Z,2.90
2018-12-16T16:31:39.354Z,2.90
2018-12-16T16:34:08.211Z,2.90
2018-12-16T16:36:37.216Z,3.00
2018-12-16T16:39:07.160Z,3.10
2018-12-16T16:41:36.313Z,3.00
2018-12-16T16:44:05.313Z,3.00
2018-12-16T16:46:34.306Z,3.00
2018-12-16T16:49:03.180Z,3.10
2018-12-16T16:51:32.196Z,3.10
2018-12-16T16:54:01.068Z,3.10
2018-12-16T16:56:30.078Z,3.10
2018-12-16T16:58:58.960Z,3.20
2018-12-16T17:01:27.867Z,3.20
2018-12-16T17:03:56.759Z,3.20
2018-12-16T17:06:25.644Z,3.20
2018-12-16T17:08:55.255Z,3.20
2018-12-16T17:11:24.818Z,3.20
2018-12-16T17:13:54.670Z,3.20
2018-12-16T17:16:25.228Z,3.30
2018-12-16T17:18:54.746Z,3.30
2018-12-16T17:21:23.630Z,3.30
2018-12-16T17:23:52.505Z,3.30
2018-12-16T17:26:21.362Z,3.40
2018-12-16T17:28:50.220Z,3.50
2018-12-16T17:31:19.062Z,3.60
2018-12-16T17:33:48.005Z,3.50
2018-12-16T17:36:16.854Z,3.50
2018-12-16T17:38:45.718Z,3.40
2018-12-16T17:41:14.571Z,3.40
2018-12-16T17:43:54.940Z,3.40
2018-12-16T17:46:23.973Z,3.30
2018-12-16T17:48:52.856Z,3.40
2018-12-16T17:51:22.837Z,3.30
2018-12-16T17:53:51.781Z,3.40
2018-12-16T17:56:20.739Z,3.40
2018-12-16T17:58:52.540Z,3.30
2018-12-16T18:01:21.735Z,3.40
2018-12-16T18:03:50.755Z,3.40
2018-12-16T18:06:19.605Z,3.40
2018-12-16T18:08:48.474Z,3.40
2018-12-16T18:11:17.331Z,3.50
2018-12-16T18:13:46.193Z,3.50
2018-12-16T18:16:15.076Z,3.60
2018-12-16T18:18:43.932Z,3.50
2018-12-16T18:21:12.778Z,3.50
2018-12-16T18:23:41.757Z,3.60
2018-12-16T18:26:10.590Z,3.60
2018-12-16T18:28:39.724Z,3.60
2018-12-16T18:31:08.570Z,3.60
2018-12-16T18:33:37.740Z,3.60
2018-12-16T18:36:06.590Z,3.70
2018-12-16T18:38:35.490Z,3.70
2018-12-16T18:41:04.415Z,3.70
2018-12-16T18:44:36.804Z,3.60
2018-12-16T18:47:05.776Z,3.60
2018-12-16T18:49:34.623Z,3.60
2018-12-16T18:52:03.732Z,3.60
2018-12-16T18:54:32.678Z,3.70
2018-12-16T18:57:07.153Z,3.60
2018-12-16T18:59:32.373Z,3.60
2018-12-16T19:02:01.303Z,3.60
2018-12-16T19:04:30.224Z,3.60
2018-12-16T19:06:59.770Z,3.70
2018-12-16T19:09:28.674Z,3.70
2018-12-16T19:11:57.661Z,3.70
2018-12-16T19:14:26.730Z,3.70
2018-12-16T19:16:55.569Z,3.70
2018-12-16T19:19:24.587Z,3.60
2018-12-16T19:21:53.600Z,3.70
2018-12-16T19:24:22.590Z,3.70
2018-12-16T19:26:57.959Z,3.80
2018-12-16T19:29:22.437Z,3.80
2018-12-16T19:31:51.589Z,3.80
2018-12-16T19:34:20.629Z,3.80
2018-12-16T19:36:49.671Z,3.80
2018-12-16T19:39:19.679Z,3.80
2018-12-16T19:41:48.678Z,3.90
2018-12-16T19:44:17.564Z,3.90
2018-12-16T19:46:46.613Z,4.00
2018-12-16T19:49:15.529Z,4.00
2018-12-16T19:51:44.517Z,3.90
2018-12-16T19:54:13.600Z,3.90
2018-12-16T19:56:42.620Z,4.00
2018-12-16T19:59:11.513Z,3.90
2018-12-16T20:01:41.734Z,3.90
2018-12-16T20:04:17.161Z,3.80
2018-12-16T20:06:47.541Z,3.90
2018-12-16T20:09:16.444Z,4.00
2018-12-16T20:11:45.529Z,4.00
2018-12-16T20:14:14.377Z,4.00
2018-12-16T20:16:43.364Z,4.00
2018-12-16T20:19:14.134Z,3.90
2018-12-16T20:21:43.446Z,3.90
2018-12-16T20:24:12.367Z,3.80
2018-12-16T20:26:41.369Z,3.70
2018-12-16T20:29:10.262Z,3.80
2018-12-16T20:31:39.161Z,3.70
2018-12-16T20:34:08.212Z,3.70
2018-12-16T20:36:37.132Z,3.60
2018-12-16T20:39:08.258Z,3.70
2018-12-16T20:41:37.089Z,3.70
2018-12-16T20:44:05.964Z,3.70
2018-12-16T20:46:34.985Z,3.80
2018-12-16T20:49:04.132Z,3.70
2018-12-16T20:51:33.026Z,3.70
2018-12-16T20:54:02.148Z,3.80
2018-12-16T20:56:31.116Z,3.90
2018-12-16T20:59:00.237Z,3.90
2018-12-16T21:01:29.151Z,3.90
2018-12-16T21:03:58.025Z,3.90
2018-12-16T21:06:27.017Z,3.90
2018-12-16T21:08:56.044Z,3.90
2018-12-16T21:11:30.370Z,3.90
2018-12-16T21:14:04.819Z,3.90
2018-12-16T21:16:39.204Z,3.90
2018-12-16T21:19:08.144Z,3.90
2018-12-16T21:21:37.150Z,3.80
2018-12-16T21:24:06.160Z,3.80
2018-12-16T21:26:35.034Z,3.70
2018-12-16T21:29:03.964Z,3.70
2018-12-16T21:31:32.841Z,3.60
2018-12-16T21:34:01.908Z,3.70
2018-12-16T21:36:31.733Z,3.70
2018-12-16T21:39:00.715Z,3.70
2018-12-16T21:41:29.625Z,3.70
2018-12-16T21:43:58.602Z,3.70
2018-12-16T21:46:27.504Z,3.70
2018-12-16T21:48:56.441Z,3.70
2018-12-16T21:51:25.357Z,3.60
2018-12-16T21:53:54.425Z,3.60
2018-12-16T21:56:23.437Z,3.60
2018-12-16T21:58:52.519Z,3.70
2018-12-16T22:01:21.432Z,3.60
2018-12-16T22:03:50.524Z,3.50
2018-12-16T22:06:19.434Z,3.50
2018-12-16T22:08:48.409Z,3.50
2018-12-16T22:11:17.303Z,3.40
2018-12-16T22:13:46.309Z,3.40
2018-12-16T22:16:15.250Z,3.40
2018-12-16T22:18:44.330Z,3.40
2018-12-16T22:21:13.197Z,3.30
2018-12-16T22:23:42.375Z,3.40
2018-12-16T22:26:11.262Z,3.40
2018-12-16T22:28:40.333Z,3.40
2018-12-16T22:31:09.357Z,3.40
2018-12-16T22:33:38.342Z,3.40
2018-12-16T22:36:07.414Z,3.40
2018-12-16T22:38:36.578Z,3.40
2018-12-16T22:41:05.564Z,3.40
2018-12-16T22:43:34.669Z,3.40
2018-12-16T22:46:03.575Z,3.30
2018-12-16T22:48:32.557Z,3.40
2018-12-16T22:51:01.458Z,3.40
2018-12-16T22:53:30.598Z,3.40
2018-12-16T22:55:59.685Z,3.40
2018-12-16T22:58:28.871Z,3.40
2018-12-16T23:01:03.370Z,3.40
2018-12-16T23:03:34.096Z,3.40
2018-12-16T23:06:03.199Z,3.40
2018-12-16T23:08:32.230Z,3.40
2018-12-16T23:11:01.161Z,3.40
2018-12-16T23:13:30.178Z,3.50
2018-12-16T23:16:00.208Z,3.50
2018-12-16T23:18:30.304Z,3.50
2018-12-16T23:20:59.262Z,3.60
2018-12-16T23:23:28.137Z,3.60
2018-12-16T23:25:57.013Z,3.60
2018-12-16T23:28:26.032Z,3.70
2018-12-16T23:30:55.005Z,3.70
2018-12-16T23:33:24.013Z,3.60
2018-12-16T23:35:52.939Z,3.70
2018-12-16T23:38:22.242Z,3.70
2018-12-16T23:40:51.363Z,3.70
2018-12-16T23:43:20.405Z,3.70
2018-12-16T23:45:49.536Z,3.90
2018-12-16T23:48:18.494Z,3.80
2018-12-16T23:50:47.397Z,3.80
2018-12-16T23:53:17.623Z,3.90
2018-12-16T23:55:46.601Z,3.90
2018-12-16T23:58:15.591Z,3.90
